| Date | Time | Temp. (oF) | Dew Point (oF) | Rel. Hum. (%) | Press. (in.) | Wind Dir. (deg.) | Wind Speed (mph) | Hourly Rainfall (i n.) |
|
|---|---|---|---|---|---|---|---|---|---|
| 1 | 08/23 | 24:00 | 63 | 57 | 82 | 30.33 | 10 | 0 | 0.00 |
| 2 | 08/22 | 23:00 | 64 | 58 | 81 | 30.33 | 10 | 0 | 0.00 |
| 3 | 08/22 | 22:00 | 66 | 57 | 75 | 30.33 | 10 | 0 | 0.00 |
| 4 | 08/22 | 21:00 | 67 | 57 | 71 | 30.32 | 10 | 0 | 0.00 |
| 5 | 08/22 | 20:00 | 70 | 57 | 64 | 30.32 | 10 | 0 | 0.00 |
| 6 | 08/22 | 19:00 | 74 | 54 | 51 | 30.35 | 10 | 1 | 0.00 |
| 7 | 08/22 | 18:00 | 76 | 54 | 48 | 30.35 | 310 | 0 | 0.00 |
| 8 | 08/22 | 17:00 | 75 | 55 | 51 | 30.33 | 10 | 2 | 0.00 |
| 9 | 08/22 | 16:00 | 76 | 55 | 49 | 30.31 | 250 | 12 | 0.00 |
| 10 | 08/22 | 15:00 | 74 | 55 | 53 | 30.30 | 10 | 2 | 0.00 |
| 11 | 08/22 | 14:00 | 74 | 55 | 52 | 30.28 | 350 | 6 | 0.00 |
| 12 | 08/22 | 13:00 | 74 | 56 | 55 | 30.28 | 10 | 4 | 0.00 |
| 13 | 08/22 | 12:00 | 72 | 57 | 60 | 30.27 | 10 | 4 | 0.00 |
| 14 | 08/22 | 11:00 | 69 | 59 | 72 | 30.29 | 280 | 10 | 0.00 |
| 15 | 08/22 | 10:00 | 65 | 59 | 83 | 30.29 | 290 | 9 | 0.00 |
| 16 | 08/22 | 09:00 | 62 | 58 | 87 | 30.29 | 290 | 1 | 0.00 |
| 17 | 08/22 | 08:00 | 61 | 57 | 89 | 30.29 | 150 | 1 | 0.00 |
| 18 | 08/22 | 07:00 | 59 | 55 | 89 | 30.28 | 10 | 0 | 0.00 |
| 19 | 08/22 | 06:00 | 59 | 55 | 89 | 30.27 | 10 | 0 | 0.00 |
| 20 | 08/22 | 05:00 | 61 | 57 | 88 | 30.26 | 10 | 1 | 0.00 |
| 21 | 08/22 | 04:00 | 61 | 57 | 87 | 30.26 | 10 | 0 | 0.00 |
| 22 | 08/22 | 03:00 | 62 | 58 | 88 | 30.26 | 10 | 2 | 0.00 |
| 23 | 08/22 | 02:00 | 62 | 58 | 87 | 30.26 | 10 | 0 | 0.00 |
| 24 | 08/22 | 01:00 | 63 | 58 | 86 | 30.25 | 10 | 0 | 0.00 |